Time;durP1;ratioP1;P1;durP2;ratioP2;P2;SDS_P1;SDS_P2;PMS_P1;PMS_P2;Temp;Humidity;BMP_temperature;BMP_pressure;BME280_temperature;BME280_humidity;BME280_pressure;Samples;Min_cycle;Max_cycle;Signal;HPM_P1;HPM_P2
2022/05/14 00:00:17;;;;;;;;;2.50;2.50;;;;;;;;5015525;28;45540;-69
2022/05/14 00:02:43;;;;;;;;;2.25;2.25;;;;;;;;5014896;28;45934;-69
2022/05/14 00:05:08;;;;;;;;;3.75;3.00;;;;;;;;5025130;28;45542;-69
2022/05/14 00:07:33;;;;;;;;;4.00;2.75;;;;;;;;5015844;28;46897;-69
2022/05/14 00:09:58;;;;;;;;;3.50;3.50;;;;;;;;5029313;28;45481;-69
2022/05/14 00:15:08;;;;;;;;;1.75;1.00;;;;;;;;5015339;28;45566;-69
2022/05/14 00:17:33;;;;;;;;;3.00;3.00;;;;;;;;5018563;28;45586;-68
2022/05/14 00:19:58;;;;;;;;;5.50;2.75;;;;;;;;5026753;28;45445;-70
2022/05/14 00:22:23;;;;;;;;;1.50;1.50;;;;;;;;5046432;28;45337;-69
2022/05/14 00:24:49;;;;;;;;;2.25;2.25;;;;;;;;5026109;28;45421;-70
2022/05/14 00:27:14;;;;;;;;;3.00;3.00;;;;;;;;5038991;28;47703;-69
2022/05/14 00:29:39;;;;;;;;;2.75;1.50;;;;;;;;5015338;28;45822;-70
2022/05/14 00:32:05;;;;;;;;;3.00;3.00;;;;;;;;5018373;28;45494;-69
2022/05/14 00:34:30;;;;;;;;;2.25;2.25;;;;;;;;5018504;28;45485;-69
2022/05/14 00:36:55;;;;;;;;;2.25;2.00;;;;;;;;5019536;28;46442;-69
2022/05/14 00:39:20;;;;;;;;;2.50;2.50;;;;;;;;5027745;28;45534;-69
2022/05/14 00:41:47;;;;;;;;;2.50;2.50;;;;;;;;5030552;28;45566;-69
2022/05/14 00:44:12;;;;;;;;;2.75;2.75;;;;;;;;5018254;28;45548;-69
2022/05/14 00:46:37;;;;;;;;;2.25;2.25;;;;;;;;5024966;28;45434;-68
2022/05/14 00:49:03;;;;;;;;;4.00;4.00;;;;;;;;5026801;28;45441;-68
2022/05/14 00:51:28;;;;;;;;;2.50;1.50;;;;;;;;5025999;28;45403;-68
2022/05/14 00:53:57;;;;;;;;;2.75;2.75;;;;;;;;5012682;28;45382;-68
2022/05/14 00:56:27;;;;;;;;;4.25;2.25;;;;;;;;5024454;28;48450;-69
2022/05/14 00:58:56;;;;;;;;;2.75;2.75;;;;;;;;5031586;28;46224;-69
2022/05/14 01:01:21;;;;;;;;;2.75;2.75;;;;;;;;5026549;28;45554;-68
2022/05/14 01:03:47;;;;;;;;;4.50;3.75;;;;;;;;5025444;28;45385;-68
2022/05/14 01:06:14;;;;;;;;;4.75;4.75;;;;;;;;5028436;28;48848;-67
2022/05/14 01:08:40;;;;;;;;;8.75;5.50;;;;;;;;5028644;28;46518;-69
2022/05/14 01:11:05;;;;;;;;;4.25;4.25;;;;;;;;5045266;28;45546;-69
2022/05/14 01:13:31;;;;;;;;;6.00;5.50;;;;;;;;5030601;28;45626;-69
2022/05/14 01:15:58;;;;;;;;;5.75;5.75;;;;;;;;5034399;28;45603;-69
2022/05/14 01:18:26;;;;;;;;;6.00;5.25;;;;;;;;5034667;28;47864;-69
2022/05/14 01:21:00;;;;;;;;;2.50;2.00;;;;;;;;5032537;28;45524;-69
2022/05/14 01:26:27;;;;;;;;;6.25;6.00;;;;;;;;5048064;28;45480;-69
2022/05/14 01:26:29;;;;;;;;;2.50;2.50;;;;;;;;5036311;28;45400;-68
2022/05/14 01:29:03;;;;;;;;;6.25;6.25;;;;;;;;5034299;28;45471;-68
2022/05/14 01:31:29;;;;;;;;;5.50;5.00;;;;;;;;5032541;28;45792;-70
2022/05/14 01:33:58;;;;;;;;;6.50;5.50;;;;;;;;5032346;28;45413;-70
2022/05/14 01:36:23;;;;;;;;;5.00;5.00;;;;;;;;5034219;28;45626;-69
2022/05/14 01:38:48;;;;;;;;;6.00;6.00;;;;;;;;5034082;28;45649;-70
2022/05/14 01:41:13;;;;;;;;;9.00;7.75;;;;;;;;5034897;28;45903;-69
2022/05/14 01:43:39;;;;;;;;;6.25;6.25;;;;;;;;5046693;28;45361;-69
2022/05/14 01:46:05;;;;;;;;;6.25;6.25;;;;;;;;5026092;28;46814;-69
2022/05/14 01:48:30;;;;;;;;;5.50;5.50;;;;;;;;5034404;28;45606;-70
2022/05/14 01:50:55;;;;;;;;;6.00;6.00;;;;;;;;5034717;28;45411;-69
2022/05/14 01:53:21;;;;;;;;;10.50;8.75;;;;;;;;5036161;28;45345;-70
2022/05/14 01:55:46;;;;;;;;;7.00;7.00;;;;;;;;5033569;28;45552;-69
2022/05/14 02:00:55;;;;;;;;;8.50;8.50;;;;;;;;5033818;28;45523;-69
2022/05/14 02:03:21;;;;;;;;;12.25;10.50;;;;;;;;5033974;28;47560;-69
2022/05/14 02:05:46;;;;;;;;;8.25;7.50;;;;;;;;5033824;28;45578;-67
2022/05/14 02:08:11;;;;;;;;;6.75;6.75;;;;;;;;5035786;28;45642;-68
2022/05/14 02:10:37;;;;;;;;;6.00;6.00;;;;;;;;5033677;28;45365;-69
2022/05/14 02:13:02;;;;;;;;;6.00;6.00;;;;;;;;5033860;28;45346;-69
2022/05/14 02:15:27;;;;;;;;;6.75;6.75;;;;;;;;5033509;28;45519;-69
2022/05/14 02:17:52;;;;;;;;;7.00;7.00;;;;;;;;5048988;28;46003;-69
2022/05/14 02:20:19;;;;;;;;;11.50;10.00;;;;;;;;5035626;28;45392;-69
2022/05/14 02:22:44;;;;;;;;;8.75;8.75;;;;;;;;5028085;28;45629;-68
2022/05/14 02:25:10;;;;;;;;;9.00;9.00;;;;;;;;5026208;28;47451;-68
2022/05/14 02:27:35;;;;;;;;;11.50;11.00;;;;;;;;5032402;28;46158;-69
2022/05/14 02:30:01;;;;;;;;;9.50;9.50;;;;;;;;5033192;28;45391;-67
2022/05/14 02:32:27;;;;;;;;;11.25;9.75;;;;;;;;5033695;28;45687;-68
2022/05/14 02:34:53;;;;;;;;;9.25;8.75;;;;;;;;5045730;28;48590;-69
2022/05/14 02:37:20;;;;;;;;;8.75;8.75;;;;;;;;5027257;28;45590;-69
2022/05/14 02:39:45;;;;;;;;;8.25;8.00;;;;;;;;5031659;28;45272;-68
2022/05/14 02:42:10;;;;;;;;;10.50;8.25;;;;;;;;5030525;28;45488;-67
2022/05/14 02:44:36;;;;;;;;;10.75;10.75;;;;;;;;5047465;28;47489;-68
2022/05/14 02:47:01;;;;;;;;;8.50;8.50;;;;;;;;5032736;28;45559;-69
2022/05/14 02:49:26;;;;;;;;;10.00;9.00;;;;;;;;5033055;28;45432;-70
2022/05/14 02:51:53;;;;;;;;;11.50;9.00;;;;;;;;5033079;28;45352;-71
2022/05/14 02:54:18;;;;;;;;;8.00;8.00;;;;;;;;5031474;28;47902;-70
2022/05/14 02:56:43;;;;;;;;;9.50;9.25;;;;;;;;5032691;28;45325;-70
2022/05/14 02:59:09;;;;;;;;;11.25;9.25;;;;;;;;5033729;28;45387;-68
2022/05/14 03:01:34;;;;;;;;;10.50;8.75;;;;;;;;5031228;28;45586;-68
2022/05/14 03:04:00;;;;;;;;;8.00;8.00;;;;;;;;5032724;28;45609;-68
2022/05/14 03:06:26;;;;;;;;;9.50;9.50;;;;;;;;5032775;28;45412;-68
2022/05/14 03:08:51;;;;;;;;;9.00;9.00;;;;;;;;5032915;28;45528;-69
2022/05/14 03:11:16;;;;;;;;;9.50;7.50;;;;;;;;5033250;28;45937;-68
2022/05/14 03:13:41;;;;;;;;;11.00;10.00;;;;;;;;5031164;28;45980;-69
2022/05/14 03:16:07;;;;;;;;;9.25;8.75;;;;;;;;5032266;28;45445;-69
2022/05/14 03:18:32;;;;;;;;;12.75;9.75;;;;;;;;5031237;28;45509;-69
2022/05/14 03:20:58;;;;;;;;;10.50;10.50;;;;;;;;5032832;28;45626;-69
2022/05/14 03:23:23;;;;;;;;;8.75;8.75;;;;;;;;5046824;28;47503;-69
2022/05/14 03:25:49;;;;;;;;;10.25;9.00;;;;;;;;5030650;28;45381;-70
2022/05/14 03:28:14;;;;;;;;;11.50;10.50;;;;;;;;5044609;28;45287;-68
2022/05/14 03:30:39;;;;;;;;;10.25;10.25;;;;;;;;5021282;28;45696;-69
2022/05/14 03:33:05;;;;;;;;;9.75;9.50;;;;;;;;5032218;28;46396;-69
2022/05/14 03:35:30;;;;;;;;;10.00;8.75;;;;;;;;5033492;28;45203;-69
2022/05/14 03:37:55;;;;;;;;;11.50;9.00;;;;;;;;5031891;28;45724;-69
2022/05/14 03:40:21;;;;;;;;;8.00;8.00;;;;;;;;5030828;28;45552;-69
2022/05/14 03:42:46;;;;;;;;;10.00;10.00;;;;;;;;5030119;28;47826;-69
2022/05/14 03:45:11;;;;;;;;;10.00;10.00;;;;;;;;5028478;28;46138;-69
2022/05/14 03:47:36;;;;;;;;;9.75;9.75;;;;;;;;5031088;28;45377;-69
2022/05/14 03:50:02;;;;;;;;;11.25;10.25;;;;;;;;5033427;28;45537;-68
2022/05/14 03:52:27;;;;;;;;;14.00;10.00;;;;;;;;5030161;28;46920;-68
2022/05/14 03:54:52;;;;;;;;;11.50;11.50;;;;;;;;5030904;28;45517;-68
2022/05/14 03:57:18;;;;;;;;;15.00;10.75;;;;;;;;5022472;28;45594;-66
2022/05/14 03:59:43;;;;;;;;;10.50;10.25;;;;;;;;5026053;28;45433;-69
2022/05/14 04:02:09;;;;;;;;;8.00;8.00;;;;;;;;5033407;28;47370;-68
2022/05/14 04:04:34;;;;;;;;;10.50;8.75;;;;;;;;5030518;28;45480;-68
2022/05/14 04:06:59;;;;;;;;;13.75;9.50;;;;;;;;5030355;28;45788;-68
2022/05/14 04:09:25;;;;;;;;;9.25;8.75;;;;;;;;5024670;28;45370;-68
2022/05/14 04:11:51;;;;;;;;;12.00;10.75;;;;;;;;5041555;28;48620;-68
2022/05/14 04:14:17;;;;;;;;;8.00;8.00;;;;;;;;5027630;28;45517;-68
2022/05/14 04:16:42;;;;;;;;;8.50;8.00;;;;;;;;5029012;28;45730;-68
2022/05/14 04:19:07;;;;;;;;;6.50;6.50;;;;;;;;5029291;28;45403;-69
2022/05/14 04:21:32;;;;;;;;;10.25;9.00;;;;;;;;5027173;28;46738;-69
2022/05/14 04:23:59;;;;;;;;;7.00;6.75;;;;;;;;5027397;28;45413;-68
2022/05/14 04:26:24;;;;;;;;;7.25;7.25;;;;;;;;5024739;28;45446;-69
2022/05/14 04:28:50;;;;;;;;;5.50;5.50;;;;;;;;5027288;28;45624;-69
2022/05/14 04:31:15;;;;;;;;;10.25;10.25;;;;;;;;5030406;28;45798;-69
2022/05/14 04:33:40;;;;;;;;;8.00;8.00;;;;;;;;5018236;28;45497;-69
2022/05/14 04:36:05;;;;;;;;;11.00;8.75;;;;;;;;5020407;28;45780;-69
2022/05/14 04:38:30;;;;;;;;;8.00;8.00;;;;;;;;5024887;28;45586;-69
2022/05/14 04:40:56;;;;;;;;;11.00;9.25;;;;;;;;5016845;28;47581;-69
2022/05/14 04:43:21;;;;;;;;;8.50;8.50;;;;;;;;5030301;28;47887;-69
2022/05/14 04:45:46;;;;;;;;;10.25;10.00;;;;;;;;5045667;28;45475;-71
2022/05/14 04:48:12;;;;;;;;;12.25;10.25;;;;;;;;5029802;28;45525;-69
2022/05/14 04:50:38;;;;;;;;;10.25;10.25;;;;;;;;5031775;28;47466;-71
2022/05/14 04:53:04;;;;;;;;;14.75;11.25;;;;;;;;5034422;28;45335;-70
2022/05/14 04:55:30;;;;;;;;;11.00;9.00;;;;;;;;5034854;28;45498;-70
2022/05/14 04:57:55;;;;;;;;;9.00;7.75;;;;;;;;5035445;28;45584;-70
2022/05/14 05:00:20;;;;;;;;;8.00;8.00;;;;;;;;5032723;28;45936;-70
2022/05/14 05:05:30;;;;;;;;;9.75;8.00;;;;;;;;5034560;28;45541;-69
2022/05/14 05:07:56;;;;;;;;;14.00;11.75;;;;;;;;5031265;28;45696;-71
2022/05/14 05:10:21;;;;;;;;;10.00;10.00;;;;;;;;5034370;28;45746;-72
2022/05/14 05:12:46;;;;;;;;;12.00;11.25;;;;;;;;5035160;28;45348;-70
2022/05/14 05:15:12;;;;;;;;;11.50;11.50;;;;;;;;5033132;28;45639;-70
2022/05/14 05:17:37;;;;;;;;;9.50;8.50;;;;;;;;5033046;28;45440;-71
2022/05/14 05:20:03;;;;;;;;;12.00;12.00;;;;;;;;5032855;28;48314;-69
2022/05/14 05:22:28;;;;;;;;;10.00;10.00;;;;;;;;5034290;28;45628;-69
2022/05/14 05:24:54;;;;;;;;;12.00;11.00;;;;;;;;5036481;28;45304;-68
2022/05/14 05:27:19;;;;;;;;;8.75;8.75;;;;;;;;5049502;28;45583;-69
2022/05/14 05:29:44;;;;;;;;;12.25;11.75;;;;;;;;5032453;28;45812;-68
2022/05/14 05:32:10;;;;;;;;;13.00;13.00;;;;;;;;5033944;28;45575;-70
2022/05/14 05:34:35;;;;;;;;;11.00;11.00;;;;;;;;5033977;28;45496;-69
2022/05/14 05:37:00;;;;;;;;;11.25;10.25;;;;;;;;5035514;28;45186;-70
2022/05/14 05:39:25;;;;;;;;;11.50;10.75;;;;;;;;5033584;28;45793;-69
2022/05/14 05:41:51;;;;;;;;;9.75;9.00;;;;;;;;5033767;28;45347;-68
2022/05/14 05:44:16;;;;;;;;;12.25;10.00;;;;;;;;5032975;28;45591;-69
2022/05/14 05:46:41;;;;;;;;;13.25;12.00;;;;;;;;5032803;28;45480;-69
2022/05/14 05:49:07;;;;;;;;;13.75;13.75;;;;;;;;5034288;28;46636;-70
2022/05/14 05:51:32;;;;;;;;;17.00;13.00;;;;;;;;5033624;28;45493;-69
2022/05/14 05:56:51;;;;;;;;;13.00;12.00;;;;;;;;5026710;28;45496;-70
2022/05/14 05:59:17;;;;;;;;;13.50;13.50;;;;;;;;5030324;28;45746;-71
2022/05/14 06:01:43;;;;;;;;;13.00;12.25;;;;;;;;5032159;28;45715;-69
2022/05/14 06:04:08;;;;;;;;;12.00;11.25;;;;;;;;5032983;28;45506;-69
2022/05/14 06:06:33;;;;;;;;;14.75;9.00;;;;;;;;5047928;28;45614;-69
2022/05/14 06:08:59;;;;;;;;;9.50;7.75;;;;;;;;5028778;28;46032;-70
2022/05/14 06:11:30;;;;;;;;;4.00;4.00;;;;;;;;5032268;28;45513;-70
2022/05/14 06:13:56;;;;;;;;;4.00;4.00;;;;;;;;5032891;28;45354;-70
2022/05/14 06:16:21;;;;;;;;;2.50;2.50;;;;;;;;5031908;28;45661;-70
2022/05/14 06:18:46;;;;;;;;;4.50;4.00;;;;;;;;5034860;28;46132;-70
2022/05/14 06:21:12;;;;;;;;;3.00;3.00;;;;;;;;5028743;28;45596;-70
2022/05/14 06:23:37;;;;;;;;;7.25;4.00;;;;;;;;5025940;28;45771;-70
2022/05/14 06:26:03;;;;;;;;;2.75;2.75;;;;;;;;5032114;28;45410;-70
2022/05/14 06:28:28;;;;;;;;;3.75;3.00;;;;;;;;5031958;28;45611;-70
2022/05/14 06:30:53;;;;;;;;;5.75;4.75;;;;;;;;5035533;28;45416;-70
2022/05/14 06:33:19;;;;;;;;;4.50;4.50;;;;;;;;5033065;28;45501;-70
2022/05/14 06:35:45;;;;;;;;;2.00;2.00;;;;;;;;5031928;28;45619;-71
2022/05/14 06:38:10;;;;;;;;;4.00;4.00;;;;;;;;5031985;28;47547;-70
2022/05/14 06:40:36;;;;;;;;;3.25;3.25;;;;;;;;5030516;28;45347;-71
2022/05/14 06:43:01;;;;;;;;;2.25;2.25;;;;;;;;5046731;28;45540;-70
2022/05/14 06:45:26;;;;;;;;;2.75;2.75;;;;;;;;5046504;28;45434;-70
2022/05/14 06:47:53;;;;;;;;;4.25;3.50;;;;;;;;5026551;28;45515;-69
2022/05/14 06:50:18;;;;;;;;;2.00;2.00;;;;;;;;5032772;28;45497;-68
2022/05/14 06:52:46;;;;;;;;;1.50;1.00;;;;;;;;5031812;28;45386;-69
2022/05/14 06:55:14;;;;;;;;;2.75;2.25;;;;;;;;5033362;28;45640;-70
2022/05/14 06:57:39;;;;;;;;;2.50;2.50;;;;;;;;5032980;28;45452;-70
2022/05/14 07:00:05;;;;;;;;;1.75;1.75;;;;;;;;5032605;28;45377;-70
2022/05/14 07:02:31;;;;;;;;;5.50;4.00;;;;;;;;5042723;28;44884;-69
2022/05/14 07:07:41;;;;;;;;;3.00;2.25;;;;;;;;5032665;28;45512;-70
2022/05/14 07:10:06;;;;;;;;;5.00;4.00;;;;;;;;5031749;28;46105;-69
2022/05/14 07:12:32;;;;;;;;;4.75;4.25;;;;;;;;5032080;28;45548;-69
2022/05/14 07:14:58;;;;;;;;;3.75;3.25;;;;;;;;5031369;28;45492;-70
2022/05/14 07:17:25;;;;;;;;;2.75;2.75;;;;;;;;5030985;28;47444;-70
2022/05/14 07:19:51;;;;;;;;;3.50;3.50;;;;;;;;5031888;28;45429;-68
2022/05/14 07:22:17;;;;;;;;;4.25;3.25;;;;;;;;5031793;28;45559;-68
2022/05/14 07:24:42;;;;;;;;;7.00;4.25;;;;;;;;5034398;28;45662;-71
2022/05/14 07:27:11;;;;;;;;;3.50;3.50;;;;;;;;5032364;28;46444;-68
2022/05/14 07:29:36;;;;;;;;;2.00;2.00;;;;;;;;5031326;28;45982;-70
2022/05/14 07:32:03;;;;;;;;;3.00;2.00;;;;;;;;5030169;28;45503;-68
2022/05/14 07:34:28;;;;;;;;;2.50;2.50;;;;;;;;5047656;28;45331;-70
2022/05/14 07:36:56;;;;;;;;;1.75;1.75;;;;;;;;5034299;28;46201;-70
2022/05/14 07:39:24;;;;;;;;;4.50;4.50;;;;;;;;5044319;28;45405;-70
2022/05/14 07:41:53;;;;;;;;;4.00;3.00;;;;;;;;5026498;28;45415;-70
2022/05/14 07:44:19;;;;;;;;;5.25;4.50;;;;;;;;5030933;28;45533;-70
2022/05/14 07:46:45;;;;;;;;;4.75;4.75;;;;;;;;5032398;28;45762;-70
2022/05/14 07:49:12;;;;;;;;;4.50;4.25;;;;;;;;5033630;28;45363;-70
2022/05/14 07:51:38;;;;;;;;;4.00;4.00;;;;;;;;5028322;28;45635;-70
2022/05/14 07:54:03;;;;;;;;;2.00;1.75;;;;;;;;5030734;28;45477;-69
2022/05/14 07:56:29;;;;;;;;;4.75;4.75;;;;;;;;5032089;28;46652;-70
2022/05/14 07:58:54;;;;;;;;;6.75;6.25;;;;;;;;5047408;28;47754;-69
2022/05/14 08:01:19;;;;;;;;;7.25;5.50;;;;;;;;5032404;28;45429;-69
2022/05/14 08:03:47;;;;;;;;;5.00;5.00;;;;;;;;5033106;28;45687;-69
2022/05/14 08:06:15;;;;;;;;;6.25;5.50;;;;;;;;5022804;28;46219;-69
2022/05/14 08:08:40;;;;;;;;;6.00;6.00;;;;;;;;5030574;28;45848;-70
2022/05/14 08:11:05;;;;;;;;;4.50;4.50;;;;;;;;5015036;28;45446;-69
2022/05/14 08:13:34;;;;;;;;;4.75;4.75;;;;;;;;5023251;28;45896;-70
2022/05/14 08:16:00;;;;;;;;;3.00;3.00;;;;;;;;5025874;28;47605;-68
2022/05/14 08:18:25;;;;;;;;;3.25;3.25;;;;;;;;5029524;28;45372;-70
2022/05/14 08:20:51;;;;;;;;;2.75;2.75;;;;;;;;5031783;28;45517;-71
2022/05/14 08:26:01;;;;;;;;;3.75;3.75;;;;;;;;5033463;28;45412;-71
2022/05/14 08:28:27;;;;;;;;;3.50;3.50;;;;;;;;5029751;28;45418;-69
2022/05/14 08:30:52;;;;;;;;;5.00;5.00;;;;;;;;5029776;28;45469;-70
2022/05/14 08:33:19;;;;;;;;;5.25;4.25;;;;;;;;5031397;28;45326;-71
2022/05/14 08:35:45;;;;;;;;;3.50;3.00;;;;;;;;5032375;28;47426;-69
2022/05/14 08:38:11;;;;;;;;;5.00;4.00;;;;;;;;5032896;28;45446;-69
2022/05/14 08:40:41;;;;;;;;;3.00;3.00;;;;;;;;5031079;28;45699;-69
2022/05/14 08:43:17;;;;;;;;;4.25;3.50;;;;;;;;5029481;28;45408;-69
2022/05/14 08:45:43;;;;;;;;;2.75;2.00;;;;;;;;5035109;28;46246;-70
2022/05/14 08:48:15;;;;;;;;;6.50;5.00;;;;;;;;5034023;28;46033;-70
2022/05/14 08:50:41;;;;;;;;;4.25;4.00;;;;;;;;5035654;28;45385;-70
2022/05/14 08:53:09;;;;;;;;;4.25;3.25;;;;;;;;5036924;28;45374;-70
2022/05/14 08:55:46;;;;;;;;;4.25;3.25;;;;;;;;5034496;28;46512;-70
2022/05/14 08:58:24;;;;;;;;;3.00;3.00;;;;;;;;5035116;28;45294;-69
2022/05/14 09:00:49;;;;;;;;;2.25;2.00;;;;;;;;5033664;28;45322;-70
2022/05/14 09:03:15;;;;;;;;;5.75;3.25;;;;;;;;5050422;28;45604;-70
2022/05/14 09:05:40;;;;;;;;;4.00;3.00;;;;;;;;5035484;28;46387;-69
2022/05/14 09:08:06;;;;;;;;;5.75;5.00;;;;;;;;5036181;28;45443;-69
2022/05/14 09:10:36;;;;;;;;;4.25;3.25;;;;;;;;5033318;28;45610;-70
2022/05/14 09:13:13;;;;;;;;;3.50;3.50;;;;;;;;5033351;28;45837;-71
2022/05/14 09:15:47;;;;;;;;;6.75;4.25;;;;;;;;5034339;28;46248;-70
2022/05/14 09:18:23;;;;;;;;;2.75;2.75;;;;;;;;5034656;28;45655;-70
2022/05/14 09:21:09;;;;;;;;;3.00;3.00;;;;;;;;5034616;28;45346;-71
2022/05/14 09:23:37;;;;;;;;;2.00;2.00;;;;;;;;5048626;28;45623;-70
2022/05/14 09:26:10;;;;;;;;;3.00;3.00;;;;;;;;5048258;28;48756;-70
2022/05/14 09:28:43;;;;;;;;;4.00;3.00;;;;;;;;5031770;28;45511;-70
2022/05/14 09:31:09;;;;;;;;;1.00;1.00;;;;;;;;5034316;28;45397;-69
2022/05/14 09:33:38;;;;;;;;;2.00;2.00;;;;;;;;5034186;28;45496;-71
2022/05/14 09:36:07;;;;;;;;;3.75;2.50;;;;;;;;5034690;28;45379;-70
2022/05/14 09:38:32;;;;;;;;;2.75;2.75;;;;;;;;5035582;28;45452;-70
2022/05/14 09:41:10;;;;;;;;;2.50;2.00;;;;;;;;5033881;28;45525;-69
2022/05/14 09:43:37;;;;;;;;;10.00;8.75;;;;;;;;5034321;28;45553;-70
2022/05/14 09:46:04;;;;;;;;;13.00;13.00;;;;;;;;5033901;28;46697;-70
2022/05/14 09:48:49;;;;;;;;;2.00;2.00;;;;;;;;5032814;28;45390;-68
2022/05/14 09:51:35;;;;;;;;;1.00;1.00;;;;;;;;5032388;28;45354;-73
2022/05/14 09:54:18;;;;;;;;;2.00;1.25;;;;;;;;5031917;28;45358;-72
2022/05/14 09:56:43;;;;;;;;;2.00;2.00;;;;;;;;5033872;28;47762;-80
2022/05/14 09:59:09;;;;;;;;;2.00;2.00;;;;;;;;5029465;28;45381;-71
2022/05/14 10:01:41;;;;;;;;;1.75;1.75;;;;;;;;5029934;28;45478;-73
2022/05/14 10:04:15;;;;;;;;;1.00;1.00;;;;;;;;5032774;28;45576;-72
2022/05/14 10:06:59;;;;;;;;;2.00;2.00;;;;;;;;5032191;28;45796;-73
2022/05/14 10:09:36;;;;;;;;;2.00;2.00;;;;;;;;5029145;28;45534;-74
2022/05/14 10:12:02;;;;;;;;;1.00;1.00;;;;;;;;5055798;28;45587;-72
2022/05/14 10:14:32;;;;;;;;;1.00;1.00;;;;;;;;5038512;28;45386;-71
2022/05/14 10:17:07;;;;;;;;;0.75;0.75;;;;;;;;5037291;28;48795;-70
2022/05/14 10:19:51;;;;;;;;;2.00;2.00;;;;;;;;5037119;28;45533;-69
2022/05/14 10:22:22;;;;;;;;;2.00;2.00;;;;;;;;5030831;28;45345;-69
2022/05/14 10:27:44;;;;;;;;;1.00;1.00;;;;;;;;5034908;28;45837;-69
2022/05/14 10:30:17;;;;;;;;;1.25;1.25;;;;;;;;5042508;28;45361;-70
2022/05/14 10:32:43;;;;;;;;;3.25;3.25;;;;;;;;5033260;28;45933;-70
2022/05/14 10:35:11;;;;;;;;;3.00;3.00;;;;;;;;5038840;28;45376;-68
2022/05/14 10:37:45;;;;;;;;;3.25;2.00;;;;;;;;5035629;28;45625;-69
2022/05/14 10:40:22;;;;;;;;;3.00;1.25;;;;;;;;5034089;28;45490;-69
2022/05/14 10:42:56;;;;;;;;;3.00;3.00;;;;;;;;5024072;28;45457;-68
2022/05/14 10:45:42;;;;;;;;;1.00;1.00;;;;;;;;5031739;28;45644;-69
2022/05/14 10:48:14;;;;;;;;;2.50;2.50;;;;;;;;5038094;28;45496;-69
2022/05/14 10:50:39;;;;;;;;;2.00;2.00;;;;;;;;5049247;28;45726;-69
2022/05/14 10:53:05;;;;;;;;;4.00;3.00;;;;;;;;5035012;28;45444;-69
2022/05/14 10:55:32;;;;;;;;;3.00;3.00;;;;;;;;5036387;28;45608;-69
2022/05/14 10:58:01;;;;;;;;;3.50;2.50;;;;;;;;5045565;28;48716;-68
2022/05/14 11:00:30;;;;;;;;;2.00;2.00;;;;;;;;5042525;28;45555;-69
2022/05/14 11:03:01;;;;;;;;;2.50;2.25;;;;;;;;5034857;28;45326;-67
2022/05/14 11:05:32;;;;;;;;;2.00;2.00;;;;;;;;5045270;28;45764;-69
2022/05/14 11:08:12;;;;;;;;;2.25;2.00;;;;;;;;5034630;28;45852;-69
2022/05/14 11:10:37;;;;;;;;;2.00;2.00;;;;;;;;5022426;28;45425;-70
2022/05/14 11:13:11;;;;;;;;;6.75;2.50;;;;;;;;5040966;28;45501;-70
2022/05/14 11:15:36;;;;;;;;;3.00;3.00;;;;;;;;5031704;28;45933;-69
2022/05/14 11:18:06;;;;;;;;;2.75;1.75;;;;;;;;5036699;28;45743;-69
2022/05/14 11:20:32;;;;;;;;;3.50;3.50;;;;;;;;5038843;28;45470;-69
2022/05/14 11:23:09;;;;;;;;;3.50;3.00;;;;;;;;5036852;28;45516;-69
2022/05/14 11:25:35;;;;;;;;;3.00;3.00;;;;;;;;5035490;28;45602;-72
2022/05/14 11:28:12;;;;;;;;;2.50;2.50;;;;;;;;5027360;28;48524;-69
2022/05/14 11:30:37;;;;;;;;;2.00;2.00;;;;;;;;5024073;28;46171;-70
2022/05/14 11:33:04;;;;;;;;;3.25;3.25;;;;;;;;5033277;28;45412;-71
2022/05/14 11:35:37;;;;;;;;;1.75;1.50;;;;;;;;5044952;28;45522;-69
2022/05/14 11:38:11;;;;;;;;;4.25;3.25;;;;;;;;5035537;28;47046;-69
2022/05/14 11:40:36;;;;;;;;;4.00;4.00;;;;;;;;5029510;28;45496;-68
2022/05/14 11:43:20;;;;;;;;;3.25;3.25;;;;;;;;5042627;28;45484;-68
2022/05/14 11:45:51;;;;;;;;;4.50;4.50;;;;;;;;5028195;28;45579;-69
2022/05/14 11:48:22;;;;;;;;;4.00;4.00;;;;;;;;5044526;28;46266;-70
2022/05/14 11:50:58;;;;;;;;;5.25;3.00;;;;;;;;5014918;28;45508;-70
2022/05/14 11:53:34;;;;;;;;;3.00;3.00;;;;;;;;5029869;28;45435;-70
2022/05/14 11:56:07;;;;;;;;;3.00;3.00;;;;;;;;5035108;28;45542;-71
2022/05/14 11:58:33;;;;;;;;;5.25;3.00;;;;;;;;5031852;28;47765;-69
2022/05/14 12:01:03;;;;;;;;;2.50;1.75;;;;;;;;5020039;28;45487;-69
2022/05/14 12:03:32;;;;;;;;;3.75;3.75;;;;;;;;5028423;28;45456;-69
2022/05/14 12:06:06;;;;;;;;;4.75;4.75;;;;;;;;5032070;28;45480;-68
2022/05/14 12:08:49;;;;;;;;;2.25;2.00;;;;;;;;5033653;28;45389;-68
2022/05/14 12:11:15;;;;;;;;;3.75;3.75;;;;;;;;5029488;28;45586;-68
2022/05/14 12:13:58;;;;;;;;;7.50;4.50;;;;;;;;5030083;28;45683;-69
2022/05/14 12:16:29;;;;;;;;;3.25;3.00;;;;;;;;5030588;28;45378;-69
2022/05/14 12:18:54;;;;;;;;;3.00;3.00;;;;;;;;5029613;28;48705;-68
2022/05/14 12:21:20;;;;;;;;;3.25;3.25;;;;;;;;5045643;28;46165;-69
2022/05/14 12:23:46;;;;;;;;;3.25;3.25;;;;;;;;5031606;28;45577;-69
2022/05/14 12:26:18;;;;;;;;;3.75;3.25;;;;;;;;5032324;28;45325;-68
2022/05/14 12:28:43;;;;;;;;;4.75;4.75;;;;;;;;5043796;28;47547;-68
2022/05/14 12:33:52;;;;;;;;;4.75;4.00;;;;;;;;5031825;28;45548;-68
2022/05/14 12:36:18;;;;;;;;;3.00;3.00;;;;;;;;5029331;28;46126;-67
2022/05/14 12:38:43;;;;;;;;;5.25;5.25;;;;;;;;5032398;28;49023;-68
2022/05/14 12:41:18;;;;;;;;;4.50;4.50;;;;;;;;5031769;28;45434;-70
2022/05/14 12:43:44;;;;;;;;;4.00;3.00;;;;;;;;5031770;28;45358;-68
2022/05/14 12:46:10;;;;;;;;;6.75;6.00;;;;;;;;5030395;28;45537;-69
2022/05/14 12:48:46;;;;;;;;;4.75;3.75;;;;;;;;5046922;28;48747;-68
2022/05/14 12:51:16;;;;;;;;;4.00;4.00;;;;;;;;5031441;28;45362;-68
2022/05/14 12:53:41;;;;;;;;;4.00;4.00;;;;;;;;5032461;28;45389;-69
2022/05/14 12:56:07;;;;;;;;;7.25;5.25;;;;;;;;5029712;28;45704;-68
2022/05/14 12:58:34;;;;;;;;;5.00;5.00;;;;;;;;5031434;28;45463;-67
2022/05/14 13:01:00;;;;;;;;;4.00;4.00;;;;;;;;5030487;28;46684;-67
2022/05/14 13:03:34;;;;;;;;;9.00;7.75;;;;;;;;5047088;28;45559;-68
2022/05/14 13:06:18;;;;;;;;;6.00;6.00;;;;;;;;5015861;28;45358;-68
2022/05/14 13:08:45;;;;;;;;;3.00;3.00;;;;;;;;5049494;28;47104;-68
2022/05/14 13:11:14;;;;;;;;;6.25;6.25;;;;;;;;5034795;28;45316;-66
2022/05/14 13:13:40;;;;;;;;;7.00;5.50;;;;;;;;5033391;28;45841;-68
2022/05/14 13:16:31;;;;;;;;;4.25;4.25;;;;;;;;5033424;28;45685;-68
2022/05/14 13:19:02;;;;;;;;;3.50;3.25;;;;;;;;5023098;28;45763;-69
2022/05/14 13:21:34;;;;;;;;;5.00;5.00;;;;;;;;5033158;28;45858;-68
2022/05/14 13:24:02;;;;;;;;;4.75;4.75;;;;;;;;5033485;28;45480;-68
2022/05/14 13:26:31;;;;;;;;;4.50;4.50;;;;;;;;5036701;28;45555;-69
2022/05/14 13:29:06;;;;;;;;;7.75;6.25;;;;;;;;5036583;28;45445;-67
2022/05/14 13:31:31;;;;;;;;;10.00;6.25;;;;;;;;5032956;28;46285;-68
2022/05/14 13:33:57;;;;;;;;;7.75;6.00;;;;;;;;5033161;28;45937;-67
2022/05/14 13:39:11;;;;;;;;;6.50;5.75;;;;;;;;5024574;28;45916;-66
2022/05/14 13:41:46;;;;;;;;;5.00;5.00;;;;;;;;5033952;28;45397;-67
2022/05/14 13:44:16;;;;;;;;;6.75;4.50;;;;;;;;5027119;28;45554;-67
2022/05/14 13:46:49;;;;;;;;;5.00;4.00;;;;;;;;5018574;28;45536;-68
2022/05/14 13:49:26;;;;;;;;;6.00;6.00;;;;;;;;5016379;28;48883;-67
2022/05/14 13:51:53;;;;;;;;;6.00;6.00;;;;;;;;5021237;28;45426;-67
2022/05/14 13:54:37;;;;;;;;;4.75;3.00;;;;;;;;5027041;28;45469;-66
2022/05/14 13:57:03;;;;;;;;;6.00;5.00;;;;;;;;5026446;28;45540;-68
2022/05/14 13:59:30;;;;;;;;;4.25;4.25;;;;;;;;5041679;28;47885;-67
2022/05/14 14:02:16;;;;;;;;;7.00;5.75;;;;;;;;5018519;28;45528;-68
2022/05/14 14:04:42;;;;;;;;;5.50;4.00;;;;;;;;5032323;28;45481;-68
2022/05/14 14:07:10;;;;;;;;;4.25;4.00;;;;;;;;5032671;28;45539;-67
2022/05/14 14:09:36;;;;;;;;;6.00;5.00;;;;;;;;5030507;28;46507;-69
2022/05/14 14:12:02;;;;;;;;;7.25;5.25;;;;;;;;5024362;28;45411;-67
2022/05/14 14:14:27;;;;;;;;;5.50;4.50;;;;;;;;5019506;28;45607;-66
2022/05/14 14:16:52;;;;;;;;;4.50;4.50;;;;;;;;5019537;28;45501;-67
2022/05/14 14:19:18;;;;;;;;;7.50;6.00;;;;;;;;5015626;28;47955;-69
2022/05/14 14:21:44;;;;;;;;;8.00;6.50;;;;;;;;5020118;28;45397;-69
2022/05/14 14:24:14;;;;;;;;;2.50;2.50;;;;;;;;5028738;28;45482;-68
2022/05/14 14:26:39;;;;;;;;;5.25;4.75;;;;;;;;5032253;28;45488;-68
2022/05/14 14:29:04;;;;;;;;;5.00;5.00;;;;;;;;5033021;28;45405;-66
2022/05/14 14:31:31;;;;;;;;;4.25;4.25;;;;;;;;5031044;28;46405;-67
2022/05/14 14:33:56;;;;;;;;;4.75;4.75;;;;;;;;5047560;28;45413;-67
2022/05/14 14:36:23;;;;;;;;;4.25;4.25;;;;;;;;5031610;28;45507;-67
2022/05/14 14:38:48;;;;;;;;;6.25;5.25;;;;;;;;5045315;28;48661;-69
2022/05/14 14:41:14;;;;;;;;;2.75;2.75;;;;;;;;5020331;28;45500;-67
2022/05/14 14:43:39;;;;;;;;;5.25;5.25;;;;;;;;5033685;28;45850;-68
2022/05/14 14:46:07;;;;;;;;;4.25;4.25;;;;;;;;5034488;28;45488;-66
2022/05/14 14:48:37;;;;;;;;;2.00;2.00;;;;;;;;5033708;28;46150;-67
2022/05/14 14:51:03;;;;;;;;;4.25;4.25;;;;;;;;5031677;28;45626;-67
2022/05/14 14:53:28;;;;;;;;;5.25;5.25;;;;;;;;5045201;28;45430;-68
2022/05/14 14:55:53;;;;;;;;;3.75;2.00;;;;;;;;5019190;28;45668;-68
2022/05/14 14:58:18;;;;;;;;;5.00;5.00;;;;;;;;5031161;28;47468;-67
2022/05/14 15:00:45;;;;;;;;;6.00;5.00;;;;;;;;5030493;28;45497;-67
2022/05/14 15:03:18;;;;;;;;;7.50;5.75;;;;;;;;5028199;28;45380;-66
2022/05/14 15:05:46;;;;;;;;;5.50;5.25;;;;;;;;5031493;28;45564;-68